createdAt,value
2018-07-26T00:00:50.272Z,99424.00
2018-07-26T00:02:54.750Z,99437.00
2018-07-26T00:04:59.263Z,99431.00
2018-07-26T00:07:03.764Z,99429.00
2018-07-26T00:09:10.613Z,99434.00
2018-07-26T00:11:15.074Z,99425.00
2018-07-26T00:13:19.517Z,99421.00
2018-07-26T00:15:24.098Z,99423.00
2018-07-26T00:17:28.654Z,99431.00
2018-07-26T00:19:33.125Z,99433.00
2018-07-26T00:21:37.632Z,99429.00
2018-07-26T00:23:42.099Z,99425.00
2018-07-26T00:25:46.550Z,99428.00
2018-07-26T00:27:51.007Z,99425.00
2018-07-26T00:29:55.523Z,99420.00
2018-07-26T00:32:00.026Z,99426.00
2018-07-26T00:34:04.476Z,99424.00
2018-07-26T00:36:08.930Z,99428.00
2018-07-26T00:38:13.358Z,99422.00
2018-07-26T00:40:17.862Z,99432.00
2018-07-26T00:42:22.270Z,99428.00
2018-07-26T00:44:26.727Z,99421.00
2018-07-26T00:46:31.144Z,99426.00
2018-07-26T00:48:35.604Z,99423.00
2018-07-26T00:50:40.058Z,99423.00
2018-07-26T00:52:44.545Z,99427.00
2018-07-26T00:54:49.038Z,99429.00
2018-07-26T00:56:53.583Z,99428.00
2018-07-26T00:58:58.093Z,99427.00
2018-07-26T01:01:06.047Z,99434.00
2018-07-26T01:03:10.660Z,99436.00
2018-07-26T01:05:16.200Z,99430.00
2018-07-26T01:07:22.825Z,99427.00
2018-07-26T01:09:31.190Z,99427.00
2018-07-26T01:11:39.846Z,99433.00
2018-07-26T01:13:45.728Z,99428.00
2018-07-26T01:15:52.762Z,99423.00
2018-07-26T01:17:59.690Z,99422.00
2018-07-26T01:20:06.572Z,99424.00
2018-07-26T01:22:14.191Z,99430.00
2018-07-26T01:24:22.881Z,99424.00
2018-07-26T01:26:31.430Z,99423.00
2018-07-26T01:28:38.141Z,99426.00
2018-07-26T01:30:45.612Z,99433.00
2018-07-26T01:32:53.722Z,99425.00
2018-07-26T01:35:01.043Z,99427.00
2018-07-26T01:37:08.455Z,99430.00
2018-07-26T01:39:15.007Z,99421.00
2018-07-26T01:41:21.910Z,99420.00
2018-07-26T01:44:50.543Z,99422.00
2018-07-26T01:46:57.150Z,99417.00
2018-07-26T01:49:05.110Z,99416.00
2018-07-26T01:51:13.022Z,99418.00
2018-07-26T01:53:17.618Z,99419.00
2018-07-26T01:55:26.189Z,99414.00
2018-07-26T01:57:35.605Z,99420.00
2018-07-26T01:59:41.737Z,99412.00
2018-07-26T02:01:46.153Z,99408.00
2018-07-26T02:03:51.743Z,99418.00
2018-07-26T02:05:59.031Z,99410.00
2018-07-26T02:08:05.932Z,99408.00
2018-07-26T02:10:12.594Z,99404.00
2018-07-26T02:12:19.993Z,99405.00
2018-07-26T02:14:32.118Z,99404.00
2018-07-26T02:16:39.725Z,99411.00
2018-07-26T02:18:46.486Z,99408.00
2018-07-26T02:20:51.971Z,99408.00
2018-07-26T02:22:56.395Z,99409.00
2018-07-26T02:25:01.400Z,99416.00
2018-07-26T02:27:06.367Z,99418.00
2018-07-26T02:29:10.786Z,99411.00
2018-07-26T02:31:15.258Z,99422.00
2018-07-26T02:33:19.683Z,99409.00
2018-07-26T02:35:24.149Z,99418.00
2018-07-26T02:37:28.650Z,99415.00
2018-07-26T02:39:33.143Z,99413.00
2018-07-26T02:41:37.871Z,99419.00
2018-07-26T02:43:42.602Z,99419.00
2018-07-26T02:45:47.115Z,99415.00
2018-07-26T02:47:51.664Z,99413.00
2018-07-26T02:49:56.102Z,99413.00
2018-07-26T02:52:00.539Z,99419.00
2018-07-26T02:54:05.178Z,99420.00
2018-07-26T02:56:09.625Z,99413.00
2018-07-26T02:58:14.111Z,99407.00
2018-07-26T03:00:18.551Z,99415.00
2018-07-26T03:02:23.056Z,99413.00
2018-07-26T03:04:27.588Z,99415.00
2018-07-26T03:06:32.040Z,99405.00
2018-07-26T03:08:36.444Z,99409.00
2018-07-26T03:10:40.931Z,99412.00
2018-07-26T03:12:45.407Z,99409.00
2018-07-26T03:14:49.883Z,99406.00
2018-07-26T03:16:54.315Z,99410.00
2018-07-26T03:18:58.765Z,99407.00
2018-07-26T03:21:03.339Z,99409.00
2018-07-26T03:23:07.764Z,99405.00
2018-07-26T03:25:12.174Z,99401.00
2018-07-26T03:27:16.630Z,99408.00
2018-07-26T03:29:21.044Z,99401.00
2018-07-26T03:31:25.531Z,99400.00
2018-07-26T03:33:29.942Z,99406.00
2018-07-26T03:35:34.344Z,99402.00
2018-07-26T03:37:38.833Z,99407.00
2018-07-26T03:39:43.302Z,99408.00
2018-07-26T03:41:47.771Z,99408.00
2018-07-26T03:43:52.286Z,99410.00
2018-07-26T03:45:56.801Z,99406.00
2018-07-26T03:48:01.308Z,99406.00
2018-07-26T03:50:07.202Z,99405.00
2018-07-26T03:52:11.640Z,99411.00
2018-07-26T03:54:16.072Z,99408.00
2018-07-26T03:56:20.523Z,99407.00
2018-07-26T03:58:24.968Z,99403.00
2018-07-26T04:00:29.426Z,99407.00
2018-07-26T04:02:34.206Z,99403.00
2018-07-26T04:04:40.626Z,99406.00
2018-07-26T04:06:50.050Z,99409.00
2018-07-26T04:08:55.509Z,99410.00
2018-07-26T04:11:04.051Z,99412.00
2018-07-26T04:13:12.108Z,99412.00
2018-07-26T04:15:18.967Z,99420.00
2018-07-26T04:17:25.431Z,99419.00
2018-07-26T04:19:33.821Z,99417.00
2018-07-26T04:21:39.910Z,99420.00
2018-07-26T04:23:46.154Z,99417.00
2018-07-26T04:25:51.539Z,99419.00
2018-07-26T04:27:55.987Z,99415.00
2018-07-26T04:30:00.460Z,99419.00
2018-07-26T04:32:05.089Z,99420.00
2018-07-26T04:34:09.390Z,99422.00
2018-07-26T04:36:13.944Z,99435.00
2018-07-26T04:38:18.375Z,99420.00
2018-07-26T04:40:23.616Z,99429.00
2018-07-26T04:42:28.126Z,99422.00
2018-07-26T04:44:32.557Z,99425.00
2018-07-26T04:46:37.077Z,99425.00
2018-07-26T04:48:41.527Z,99422.00
2018-07-26T04:50:45.971Z,99413.00
2018-07-26T04:52:50.443Z,99420.00
2018-07-26T04:54:55.443Z,99419.00
2018-07-26T04:56:59.918Z,99423.00
2018-07-26T04:59:04.334Z,99421.00
2018-07-26T05:01:08.824Z,99422.00
2018-07-26T05:03:13.290Z,99429.00
2018-07-26T05:05:17.699Z,99425.00
2018-07-26T05:07:22.154Z,99426.00
2018-07-26T05:09:26.597Z,99423.00
2018-07-26T05:11:31.068Z,99425.00
2018-07-26T05:13:35.530Z,99421.00
2018-07-26T05:15:40.071Z,99418.00
2018-07-26T05:17:44.602Z,99420.00
2018-07-26T05:19:49.038Z,99421.00
2018-07-26T05:21:53.479Z,99422.00
2018-07-26T05:24:00.277Z,99429.00
2018-07-26T05:26:05.215Z,99423.00
2018-07-26T05:28:09.674Z,99423.00
2018-07-26T05:30:14.275Z,99420.00
2018-07-26T05:32:18.756Z,99425.00
2018-07-26T05:34:24.012Z,99426.00
2018-07-26T05:36:28.484Z,99424.00
2018-07-26T05:38:32.941Z,99421.00
2018-07-26T05:40:37.375Z,99425.00
2018-07-26T05:42:42.093Z,99423.00
2018-07-26T05:44:46.556Z,99422.00
2018-07-26T05:46:51.018Z,99423.00
2018-07-26T05:48:55.528Z,99423.00
2018-07-26T05:50:59.974Z,99427.00
2018-07-26T05:53:04.466Z,99419.00
2018-07-26T05:55:10.391Z,99425.00
2018-07-26T05:57:14.994Z,99436.00
2018-07-26T05:59:19.495Z,99425.00
2018-07-26T06:01:24.597Z,99427.00
2018-07-26T06:03:29.074Z,99432.00
2018-07-26T06:05:33.782Z,99436.00
2018-07-26T06:07:38.358Z,99429.00
2018-07-26T06:09:42.908Z,99431.00
2018-07-26T06:11:47.382Z,99432.00
2018-07-26T06:13:51.867Z,99437.00
2018-07-26T06:15:56.335Z,99437.00
2018-07-26T06:18:00.826Z,99437.00
2018-07-26T06:20:10.050Z,99433.00
2018-07-26T06:22:14.542Z,99433.00
2018-07-26T06:24:18.959Z,99439.00
2018-07-26T06:26:24.573Z,99436.00
2018-07-26T06:28:28.746Z,99438.00
2018-07-26T06:30:33.227Z,99434.00
2018-07-26T06:32:37.776Z,99428.00
2018-07-26T06:34:42.270Z,99432.00
2018-07-26T06:36:46.842Z,99436.00
2018-07-26T06:38:51.368Z,99429.00
2018-07-26T06:40:55.783Z,99436.00
2018-07-26T06:43:00.282Z,99431.00
2018-07-26T06:45:05.902Z,99436.00
2018-07-26T06:47:10.375Z,99435.00
2018-07-26T06:49:14.839Z,99435.00
2018-07-26T06:51:19.375Z,99437.00
2018-07-26T06:53:23.854Z,99434.00
2018-07-26T06:55:28.603Z,99433.00
2018-07-26T06:57:33.146Z,99428.00
2018-07-26T06:59:37.576Z,99421.00
2018-07-26T07:01:42.023Z,99429.00
2018-07-26T07:03:46.507Z,99422.00
2018-07-26T07:05:50.935Z,99432.00
2018-07-26T07:07:55.473Z,99432.00
2018-07-26T07:09:59.991Z,99432.00
2018-07-26T07:12:04.946Z,99423.00
2018-07-26T07:14:09.502Z,99427.00
2018-07-26T07:16:14.143Z,99423.00
2018-07-26T07:18:19.088Z,99421.00
2018-07-26T07:20:23.550Z,99417.00
2018-07-26T07:22:28.844Z,99420.00
2018-07-26T07:24:33.303Z,99423.00
2018-07-26T07:26:38.095Z,99417.00
2018-07-26T07:28:42.546Z,99418.00
2018-07-26T07:30:47.071Z,99418.00
2018-07-26T07:32:51.538Z,99411.00
2018-07-26T07:34:55.994Z,99413.00
2018-07-26T07:37:00.437Z,99413.00
2018-07-26T07:39:14.490Z,99412.00
2018-07-26T07:41:22.267Z,99412.00
2018-07-26T07:43:26.959Z,99405.00
2018-07-26T07:45:31.837Z,99407.00
2018-07-26T07:47:36.334Z,99407.00
2018-07-26T07:49:40.804Z,99412.00
2018-07-26T07:51:45.219Z,99406.00
2018-07-26T07:53:49.672Z,99402.00
2018-07-26T07:55:54.163Z,99407.00
2018-07-26T07:57:58.615Z,99403.00
2018-07-26T08:00:03.619Z,99404.00
2018-07-26T08:02:08.096Z,99401.00
2018-07-26T08:04:12.770Z,99396.00
2018-07-26T08:06:17.380Z,99401.00
2018-07-26T08:08:21.867Z,99406.00
2018-07-26T08:10:26.373Z,99407.00
2018-07-26T08:12:30.797Z,99405.00
2018-07-26T08:14:35.279Z,99401.00
2018-07-26T08:16:39.735Z,99403.00
2018-07-26T08:18:44.191Z,99397.00
2018-07-26T08:20:48.724Z,99406.00
2018-07-26T08:22:53.148Z,99405.00
2018-07-26T08:24:57.660Z,99406.00
2018-07-26T08:27:02.122Z,99408.00
2018-07-26T08:29:06.598Z,99402.00
2018-07-26T08:31:11.160Z,99405.00
2018-07-26T08:33:17.334Z,99402.00
2018-07-26T08:35:22.943Z,99403.00
2018-07-26T08:37:27.432Z,99409.00
2018-07-26T08:39:32.054Z,99396.00
2018-07-26T08:41:36.890Z,99396.00
2018-07-26T08:43:41.381Z,99404.00
2018-07-26T08:45:45.838Z,99399.00
2018-07-26T08:47:50.288Z,99404.00
2018-07-26T08:49:54.772Z,99403.00
2018-07-26T08:51:59.450Z,99405.00
2018-07-26T08:54:03.886Z,99411.00
2018-07-26T08:56:08.382Z,99405.00
2018-07-26T08:58:12.593Z,99415.00
2018-07-26T09:00:18.723Z,99414.00
2018-07-26T09:02:23.204Z,99407.00
2018-07-26T09:04:33.414Z,99415.00
2018-07-26T09:06:39.826Z,99410.00
2018-07-26T09:08:45.210Z,99412.00
2018-07-26T09:10:50.025Z,99421.00
2018-07-26T09:12:55.335Z,99421.00
2018-07-26T09:14:59.765Z,99410.00
2018-07-26T09:17:04.295Z,99416.00
2018-07-26T09:19:08.869Z,99415.00
2018-07-26T09:21:13.331Z,99410.00
2018-07-26T09:23:17.950Z,99398.00
2018-07-26T09:25:22.159Z,99411.00
2018-07-26T09:27:29.503Z,99408.00
2018-07-26T09:29:36.384Z,99407.00
2018-07-26T09:31:43.454Z,99415.00
2018-07-26T09:33:51.542Z,99408.00
2018-07-26T09:35:57.999Z,99415.00
2018-07-26T09:38:05.291Z,99414.00
2018-07-26T09:40:09.773Z,99416.00
2018-07-26T09:42:14.302Z,99406.00
2018-07-26T09:44:18.726Z,99410.00
2018-07-26T09:46:23.163Z,99416.00
2018-07-26T09:48:27.716Z,99409.00
2018-07-26T09:50:32.199Z,99411.00
2018-07-26T09:52:36.732Z,99407.00
2018-07-26T09:54:41.178Z,99411.00
2018-07-26T09:56:45.619Z,99405.00
2018-07-26T09:58:50.030Z,99406.00
2018-07-26T10:00:59.731Z,99411.00
2018-07-26T10:03:04.183Z,99396.00
2018-07-26T10:05:08.653Z,99407.00
2018-07-26T10:07:16.201Z,99409.00
2018-07-26T10:09:22.433Z,99397.00
2018-07-26T10:11:29.298Z,99411.00
2018-07-26T10:13:34.654Z,99407.00
2018-07-26T10:15:40.396Z,99404.00
2018-07-26T10:17:44.834Z,99401.00
2018-07-26T10:19:49.291Z,99398.00
2018-07-26T10:21:53.790Z,99398.00
2018-07-26T10:23:58.218Z,99390.00
2018-07-26T10:26:03.428Z,99394.00
2018-07-26T10:28:08.162Z,99399.00
2018-07-26T10:30:12.667Z,99398.00
2018-07-26T10:32:17.090Z,99392.00
2018-07-26T10:34:21.538Z,99400.00
2018-07-26T10:36:25.945Z,99399.00
2018-07-26T10:38:30.376Z,99396.00
2018-07-26T10:40:34.839Z,99397.00
2018-07-26T10:42:39.298Z,99400.00
2018-07-26T10:44:43.724Z,99397.00
2018-07-26T10:46:48.176Z,99401.00
2018-07-26T10:48:52.622Z,99395.00
2018-07-26T10:50:57.085Z,99381.00
2018-07-26T10:53:01.531Z,99379.00
2018-07-26T10:55:06.754Z,99387.00
2018-07-26T10:57:11.215Z,99381.00
2018-07-26T10:59:16.139Z,99387.00
2018-07-26T11:01:20.656Z,99385.00
2018-07-26T11:03:25.075Z,99394.00
2018-07-26T11:05:29.794Z,99386.00
2018-07-26T11:07:34.347Z,99391.00
2018-07-26T11:09:38.860Z,99383.00
2018-07-26T11:11:44.078Z,99392.00
2018-07-26T11:13:48.492Z,99386.00
2018-07-26T11:15:52.938Z,99385.00
2018-07-26T11:17:57.485Z,99379.00
2018-07-26T11:20:01.937Z,99385.00
2018-07-26T11:22:06.347Z,99383.00
2018-07-26T11:24:10.845Z,99380.00
2018-07-26T11:26:15.780Z,99384.00
2018-07-26T11:28:20.207Z,99372.00
2018-07-26T11:30:25.378Z,99373.00
2018-07-26T11:32:29.805Z,99369.00
2018-07-26T11:34:34.243Z,99367.00
2018-07-26T11:36:39.394Z,99378.00
2018-07-26T11:38:44.302Z,99372.00
2018-07-26T11:40:48.864Z,99373.00
2018-07-26T11:42:53.301Z,99372.00
2018-07-26T11:44:57.822Z,99368.00
2018-07-26T11:47:02.281Z,99370.00
2018-07-26T11:49:06.962Z,99362.00
2018-07-26T11:51:11.551Z,99363.00
2018-07-26T11:53:16.120Z,99366.00
2018-07-26T11:55:20.609Z,99355.00
2018-07-26T11:57:25.059Z,99350.00
2018-07-26T11:59:29.603Z,99363.00
2018-07-26T12:01:34.193Z,99364.00
2018-07-26T12:03:38.666Z,99354.00
2018-07-26T12:05:43.132Z,99359.00
2018-07-26T12:07:47.562Z,99368.00
2018-07-26T12:09:52.004Z,99353.00
2018-07-26T12:11:59.823Z,99358.00
2018-07-26T12:14:04.605Z,99355.00
2018-07-26T12:16:09.108Z,99354.00
2018-07-26T12:18:13.299Z,99350.00
2018-07-26T12:20:17.746Z,99355.00
2018-07-26T12:22:21.997Z,99363.00
2018-07-26T12:24:26.437Z,99356.00
2018-07-26T12:26:30.891Z,99345.00
2018-07-26T12:28:35.394Z,99354.00
2018-07-26T12:30:40.747Z,99341.00
2018-07-26T12:32:45.390Z,99342.00
2018-07-26T12:34:49.817Z,99340.00
2018-07-26T12:36:54.276Z,99341.00
2018-07-26T12:38:58.374Z,99329.00
2018-07-26T12:41:02.831Z,99334.00
2018-07-26T12:43:07.312Z,99338.00
2018-07-26T12:45:11.728Z,99329.00
2018-07-26T12:47:16.162Z,99332.00
2018-07-26T12:49:20.605Z,99325.00
2018-07-26T12:51:25.102Z,99326.00
2018-07-26T12:53:29.514Z,99322.00
2018-07-26T12:55:33.994Z,99324.00
2018-07-26T12:57:38.430Z,99319.00
2018-07-26T12:59:42.992Z,99312.00
2018-07-26T13:01:47.547Z,99317.00
2018-07-26T13:03:51.972Z,99312.00
2018-07-26T13:05:56.829Z,99313.00
2018-07-26T13:08:01.278Z,99306.00
2018-07-26T13:10:06.868Z,99308.00
2018-07-26T13:12:11.387Z,99300.00
2018-07-26T13:14:15.830Z,99305.00
2018-07-26T13:16:20.301Z,99307.00
2018-07-26T13:18:24.714Z,99309.00
2018-07-26T13:20:29.164Z,99309.00
2018-07-26T13:22:33.593Z,99298.00
2018-07-26T13:24:38.030Z,99294.00
2018-07-26T13:26:42.540Z,99296.00
2018-07-26T13:28:47.002Z,99293.00
2018-07-26T13:30:51.416Z,99289.00
2018-07-26T13:32:55.934Z,99287.00
2018-07-26T13:35:00.542Z,99283.00
2018-07-26T13:37:05.483Z,99285.00
2018-07-26T13:39:13.106Z,99282.00
2018-07-26T13:41:17.614Z,99285.00
2018-07-26T13:43:22.072Z,99282.00
2018-07-26T13:45:26.527Z,99289.00
2018-07-26T13:47:30.985Z,99281.00
2018-07-26T13:49:35.431Z,99285.00
2018-07-26T13:51:39.949Z,99278.00
2018-07-26T13:53:44.362Z,99282.00
2018-07-26T13:55:48.969Z,99283.00
2018-07-26T13:57:53.451Z,99280.00
2018-07-26T13:59:58.294Z,99273.00
2018-07-26T14:02:02.971Z,99277.00
2018-07-26T14:04:07.510Z,99273.00
2018-07-26T14:06:11.983Z,99270.00
2018-07-26T14:08:16.418Z,99274.00
2018-07-26T14:10:21.087Z,99273.00
2018-07-26T14:12:25.564Z,99267.00
2018-07-26T14:14:30.194Z,99265.00
2018-07-26T14:16:35.656Z,99264.00
2018-07-26T14:18:40.165Z,99261.00
2018-07-26T14:20:44.616Z,99259.00
2018-07-26T14:22:49.138Z,99251.00
2018-07-26T14:24:57.685Z,99265.00
2018-07-26T14:27:03.025Z,99254.00
2018-07-26T14:29:07.425Z,99263.00
2018-07-26T14:31:11.862Z,99260.00
2018-07-26T14:33:16.282Z,99256.00
2018-07-26T14:35:20.722Z,99256.00
2018-07-26T14:37:25.252Z,99257.00
2018-07-26T14:39:29.830Z,99250.00
2018-07-26T14:41:34.339Z,99255.00
2018-07-26T14:43:38.838Z,99248.00
2018-07-26T14:45:43.367Z,99242.00
2018-07-26T14:47:47.933Z,99238.00
2018-07-26T14:49:52.347Z,99254.00
2018-07-26T14:51:56.906Z,99240.00
2018-07-26T14:54:01.343Z,99244.00
2018-07-26T14:56:05.803Z,99243.00
2018-07-26T14:58:10.272Z,99241.00
2018-07-26T15:00:16.627Z,99241.00
2018-07-26T15:02:21.061Z,99236.00
2018-07-26T15:04:25.534Z,99233.00
2018-07-26T15:06:29.998Z,99237.00
2018-07-26T15:08:34.462Z,99243.00
2018-07-26T15:10:38.974Z,99236.00
2018-07-26T15:12:43.554Z,99242.00
2018-07-26T15:14:47.986Z,99242.00
2018-07-26T15:16:52.579Z,99239.00
2018-07-26T15:18:58.106Z,99235.00
2018-07-26T15:21:02.739Z,99235.00
2018-07-26T15:23:07.282Z,99235.00
2018-07-26T15:25:11.782Z,99238.00
2018-07-26T15:27:16.417Z,99249.00
2018-07-26T15:29:21.671Z,99242.00
2018-07-26T15:31:26.142Z,99232.00
2018-07-26T15:33:30.591Z,99239.00
2018-07-26T15:35:36.122Z,99240.00
2018-07-26T15:37:40.635Z,99243.00
2018-07-26T15:39:45.224Z,99246.00
2018-07-26T15:41:49.694Z,99239.00
2018-07-26T15:43:54.990Z,99244.00
2018-07-26T15:45:59.490Z,99233.00
2018-07-26T15:48:04.662Z,99234.00
2018-07-26T15:50:09.161Z,99229.00
2018-07-26T15:52:13.638Z,99225.00
2018-07-26T15:54:18.111Z,99229.00
2018-07-26T15:56:22.542Z,99224.00
2018-07-26T15:58:27.030Z,99230.00
2018-07-26T16:00:31.500Z,99232.00
2018-07-26T16:02:36.441Z,99236.00
2018-07-26T16:04:40.963Z,99225.00
2018-07-26T16:06:45.378Z,99220.00
2018-07-26T16:08:49.982Z,99226.00
2018-07-26T16:10:54.474Z,99233.00
2018-07-26T16:12:58.954Z,99223.00
2018-07-26T16:15:05.040Z,99224.00
2018-07-26T16:17:09.655Z,99227.00
2018-07-26T16:19:14.115Z,99227.00
2018-07-26T16:21:18.634Z,99229.00
2018-07-26T16:23:23.158Z,99225.00
2018-07-26T16:25:27.602Z,99220.00
2018-07-26T16:27:32.110Z,99225.00
2018-07-26T16:29:37.186Z,99230.00
2018-07-26T16:31:41.836Z,99220.00
2018-07-26T16:33:46.281Z,99220.00
2018-07-26T16:35:50.705Z,99214.00
2018-07-26T16:37:55.173Z,99229.00
2018-07-26T16:39:59.657Z,99232.00
2018-07-26T16:42:04.110Z,99233.00
2018-07-26T16:44:09.388Z,99227.00
2018-07-26T16:46:13.840Z,99223.00
2018-07-26T16:48:18.307Z,99225.00
2018-07-26T16:50:23.871Z,99222.00
2018-07-26T16:52:28.387Z,99225.00
2018-07-26T16:54:33.090Z,99229.00
2018-07-26T16:56:37.517Z,99225.00
2018-07-26T16:58:42.024Z,99226.00
2018-07-26T17:00:46.439Z,99228.00
2018-07-26T17:02:50.878Z,99233.00
2018-07-26T17:04:55.423Z,99234.00
2018-07-26T17:07:00.129Z,99232.00
2018-07-26T17:09:07.798Z,99232.00
2018-07-26T17:11:12.231Z,99221.00
2018-07-26T17:13:16.669Z,99223.00
2018-07-26T17:15:22.023Z,99223.00
2018-07-26T17:17:26.522Z,99227.00
2018-07-26T17:19:31.206Z,99229.00
2018-07-26T17:21:35.918Z,99225.00
2018-07-26T17:23:40.657Z,99229.00
2018-07-26T17:25:45.269Z,99228.00
2018-07-26T17:27:50.607Z,99233.00
2018-07-26T17:29:57.434Z,99234.00
2018-07-26T17:32:01.859Z,99234.00
2018-07-26T17:34:06.113Z,99230.00
2018-07-26T17:36:10.554Z,99227.00
2018-07-26T17:38:15.031Z,99226.00
2018-07-26T17:40:19.500Z,99218.00
2018-07-26T17:42:24.829Z,99235.00
2018-07-26T17:44:29.552Z,99232.00
2018-07-26T17:46:34.273Z,99227.00
2018-07-26T17:48:38.798Z,99238.00
2018-07-26T17:50:44.139Z,99236.00
2018-07-26T17:52:49.130Z,99237.00
2018-07-26T17:54:53.957Z,99240.00
2018-07-26T17:56:58.647Z,99233.00
2018-07-26T17:59:03.355Z,99241.00
2018-07-26T18:01:08.740Z,99235.00
2018-07-26T18:03:13.422Z,99236.00
2018-07-26T18:05:17.926Z,99236.00
2018-07-26T18:07:22.403Z,99237.00
2018-07-26T18:09:27.250Z,99235.00
2018-07-26T18:11:31.780Z,99238.00
2018-07-26T18:13:36.335Z,99245.00
2018-07-26T18:15:40.783Z,99245.00
2018-07-26T18:17:45.320Z,99246.00
2018-07-26T18:19:50.035Z,99247.00
2018-07-26T18:21:54.573Z,99250.00
2018-07-26T18:23:59.017Z,99252.00
2018-07-26T18:26:03.490Z,99256.00
2018-07-26T18:28:08.038Z,99261.00
2018-07-26T18:30:12.497Z,99253.00
2018-07-26T18:32:17.067Z,99255.00
2018-07-26T18:34:21.547Z,99257.00
2018-07-26T18:36:26.106Z,99263.00
2018-07-26T18:38:30.575Z,99265.00
2018-07-26T18:40:35.404Z,99254.00
2018-07-26T18:42:39.892Z,99256.00
2018-07-26T18:44:44.701Z,99260.00
2018-07-26T18:46:49.133Z,99261.00
2018-07-26T18:48:53.581Z,99272.00
2018-07-26T18:50:58.614Z,99270.00
2018-07-26T18:53:03.242Z,99271.00
2018-07-26T18:55:10.326Z,99277.00
2018-07-26T18:57:15.080Z,99281.00
2018-07-26T18:59:19.918Z,99279.00
2018-07-26T19:01:24.622Z,99289.00
2018-07-26T19:03:29.735Z,99286.00
2018-07-26T19:05:36.475Z,99288.00
2018-07-26T19:07:42.258Z,99292.00
2018-07-26T19:09:47.634Z,99297.00
2018-07-26T19:11:52.911Z,99297.00
2018-07-26T19:13:57.357Z,99297.00
2018-07-26T19:16:02.551Z,99299.00
2018-07-26T19:18:11.779Z,99314.00
2018-07-26T19:20:17.689Z,99318.00
2018-07-26T19:22:22.131Z,99318.00
2018-07-26T19:24:27.784Z,99315.00
2018-07-26T19:26:33.613Z,99323.00
2018-07-26T19:28:40.720Z,99316.00
2018-07-26T19:30:46.096Z,99323.00
2018-07-26T19:32:50.606Z,99329.00
2018-07-26T19:34:55.069Z,99332.00
2018-07-26T19:37:00.008Z,99334.00
2018-07-26T19:39:08.810Z,99338.00
2018-07-26T19:41:14.147Z,99345.00
2018-07-26T19:43:19.938Z,99352.00
2018-07-26T19:45:24.915Z,99349.00
2018-07-26T19:47:29.630Z,99344.00
2018-07-26T19:49:34.754Z,99353.00
2018-07-26T19:51:39.263Z,99354.00
2018-07-26T19:53:43.928Z,99353.00
2018-07-26T19:55:49.451Z,99358.00
2018-07-26T19:57:54.675Z,99362.00
2018-07-26T19:59:59.979Z,99356.00
2018-07-26T20:02:04.590Z,99362.00
2018-07-26T20:04:09.483Z,99357.00
2018-07-26T20:06:15.542Z,99366.00
2018-07-26T20:08:20.211Z,99364.00
2018-07-26T20:10:25.134Z,99369.00
2018-07-26T20:12:29.787Z,99364.00
2018-07-26T20:14:34.169Z,99365.00
2018-07-26T20:16:39.995Z,99360.00
2018-07-26T20:18:45.081Z,99367.00
2018-07-26T20:20:49.726Z,99367.00
2018-07-26T20:22:54.675Z,99369.00
2018-07-26T20:24:59.394Z,99372.00
2018-07-26T20:27:04.412Z,99365.00
2018-07-26T20:29:09.525Z,99369.00
2018-07-26T20:31:14.025Z,99370.00
2018-07-26T20:33:19.124Z,99369.00
2018-07-26T20:35:23.582Z,99366.00
2018-07-26T20:37:28.300Z,99369.00
2018-07-26T20:39:32.777Z,99372.00
2018-07-26T20:41:37.392Z,99365.00
2018-07-26T20:43:42.637Z,99373.00
2018-07-26T20:45:48.265Z,99378.00
2018-07-26T20:47:54.811Z,99370.00
2018-07-26T20:49:59.402Z,99376.00
2018-07-26T20:52:03.998Z,99378.00
2018-07-26T20:54:10.260Z,99377.00
2018-07-26T20:56:14.738Z,99382.00
2018-07-26T20:58:19.184Z,99394.00
2018-07-26T21:00:24.163Z,99386.00
2018-07-26T21:02:29.866Z,99392.00
2018-07-26T21:04:34.282Z,99388.00
2018-07-26T21:06:38.721Z,99382.00
2018-07-26T21:08:43.170Z,99381.00
2018-07-26T21:10:47.644Z,99393.00
2018-07-26T21:12:52.069Z,99392.00
2018-07-26T21:14:56.558Z,99386.00
2018-07-26T21:17:00.991Z,99390.00
2018-07-26T21:19:05.561Z,99405.00
2018-07-26T21:21:10.112Z,99395.00
2018-07-26T21:23:14.533Z,99393.00
2018-07-26T21:25:19.504Z,99395.00
2018-07-26T21:27:24.117Z,99392.00
2018-07-26T21:29:28.582Z,99389.00
2018-07-26T21:31:33.128Z,99389.00
2018-07-26T21:33:37.711Z,99387.00
2018-07-26T21:35:42.166Z,99385.00
2018-07-26T21:37:48.771Z,99400.00
2018-07-26T21:39:53.294Z,99403.00
2018-07-26T21:41:57.813Z,99403.00
2018-07-26T21:44:02.211Z,99395.00
2018-07-26T21:46:06.519Z,99406.00
2018-07-26T21:48:10.942Z,99407.00
2018-07-26T21:50:15.456Z,99401.00
2018-07-26T21:52:19.930Z,99396.00
2018-07-26T21:54:24.355Z,99400.00
2018-07-26T21:56:28.839Z,99404.00
2018-07-26T21:58:33.294Z,99396.00
2018-07-26T22:00:42.917Z,99402.00
2018-07-26T22:02:47.150Z,99402.00
2018-07-26T22:04:51.567Z,99413.00
2018-07-26T22:06:56.255Z,99410.00
2018-07-26T22:09:04.166Z,99411.00
2018-07-26T22:11:08.822Z,99417.00
2018-07-26T22:13:13.751Z,99417.00
2018-07-26T22:15:18.183Z,99413.00
2018-07-26T22:17:22.326Z,99420.00
2018-07-26T22:19:26.846Z,99418.00
2018-07-26T22:21:31.330Z,99419.00
2018-07-26T22:23:35.851Z,99417.00
2018-07-26T22:25:45.625Z,99422.00
2018-07-26T22:27:50.928Z,99430.00
2018-07-26T22:29:55.326Z,99421.00
2018-07-26T22:31:59.812Z,99426.00
2018-07-26T22:34:04.239Z,99430.00
2018-07-26T22:36:08.921Z,99434.00
2018-07-26T22:38:13.820Z,99437.00
2018-07-26T22:40:18.243Z,99432.00
2018-07-26T22:42:22.732Z,99440.00
2018-07-26T22:44:29.352Z,99435.00
2018-07-26T22:46:35.391Z,99435.00
2018-07-26T22:48:39.803Z,99436.00
2018-07-26T22:50:44.283Z,99434.00
2018-07-26T22:52:48.743Z,99440.00
2018-07-26T22:54:53.147Z,99432.00
2018-07-26T22:56:57.630Z,99435.00
2018-07-26T22:59:02.134Z,99427.00
2018-07-26T23:01:06.632Z,99433.00
2018-07-26T23:03:14.315Z,99431.00
2018-07-26T23:05:19.304Z,99441.00
2018-07-26T23:07:23.761Z,99429.00
2018-07-26T23:09:28.947Z,99434.00
2018-07-26T23:11:33.466Z,99428.00
2018-07-26T23:13:37.997Z,99437.00
2018-07-26T23:15:42.400Z,99426.00
2018-07-26T23:17:46.897Z,99430.00
2018-07-26T23:19:51.233Z,99429.00
2018-07-26T23:21:55.678Z,99427.00
2018-07-26T23:24:00.106Z,99429.00
2018-07-26T23:26:04.589Z,99428.00
2018-07-26T23:28:09.180Z,99424.00
2018-07-26T23:30:13.640Z,99426.00
2018-07-26T23:32:18.228Z,99424.00
2018-07-26T23:34:22.675Z,99426.00
2018-07-26T23:36:27.181Z,99426.00
2018-07-26T23:38:31.845Z,99425.00
2018-07-26T23:40:36.286Z,99419.00
2018-07-26T23:42:41.326Z,99420.00
2018-07-26T23:44:45.762Z,99426.00
2018-07-26T23:46:51.033Z,99420.00
2018-07-26T23:48:55.529Z,99420.00
2018-07-26T23:51:00.169Z,99424.00
2018-07-26T23:53:04.762Z,99428.00
2018-07-26T23:55:09.203Z,99427.00
2018-07-26T23:57:13.745Z,99430.00
2018-07-26T23:59:18.166Z,99430.00
